OOCL Kaohsiung — 9V9830 — position and weather

sailwx.info

Track history (hours):
 
Tides and Currents Weather Stations Pressure Air Temp Water Temp Dewpoint Dewpoint Depression Visibility Wind Speed Wind Dir Waves Ship Positions

OOCL Kaohsiung

Last reported at 2017-Aug-13 22:35 UTC. Time now 2017-Aug-22 12:53 UTC.
Position N 01°23' E 104°27'.
Warning: this ship's position is 8 days out of date.

Length 280 m; draft 13.7 m.

Type: Ship. MMSI: 566389000.

Date/timePositionNaut miles runAvg speedWind from/ knotsBaromVisibWave heightAir tempDewpointWater temp
2017-Aug-13 22:35N 01°23' E 104°27'3018.4
2017-Aug-13 20:56N 01°13' E 103°58'818.0
2017-Aug-13 20:30N 01°11' E 103°50'917.6
2017-Aug-13 20:00N 01°05' E 103°44'815.5
2017-Aug-13 19:30N 01°04' E 103°36'918.9
2017-Aug-13 19:01N 01°08' E 103°28'1020.1
2017-Aug-13 18:30N 01°14' E 103°20'5 0.1
2017-Aug-12 07:21N 01°14' E 103°25'716.1
2017-Aug-12 06:57N 01°12' E 103°31'715.8
2017-Aug-12 06:30N 01°11' E 103°38'815.3
2017-Aug-12 06:00N 01°09' E 103°45'815.6
2017-Aug-12 05:31N 01°12' E 103°52'3 6.7
2017-Aug-12 05:01N 01°15' E 103°51'1 1.7
2017-Aug-12 04:27N 01°16' E 103°50'0 0.1
2017-Aug-12 03:54N 01°16' E 103°50'0 0.0
2017-Aug-12 03:30N 01°16' E 103°50'0 0.0
2017-Aug-12 03:00N 01°16' E 103°50'0 0.0
2017-Aug-12 02:30N 01°16' E 103°50'0 0.0
2017-Aug-12 01:57N 01°16' E 103°50'0 0.0
2017-Aug-12 01:30N 01°16' E 103°50'0 0.0
2017-Aug-12 00:57N 01°16' E 103°50'0 0.0
2017-Aug-12 00:30N 01°16' E 103°50'0 0.0
2017-Aug-11 23:57N 01°16' E 103°50'0 0.0
2017-Aug-11 23:27N 01°16' E 103°50'0 0.0
2017-Aug-11 22:57N 01°16' E 103°50'0 0.0
2017-Aug-11 22:27N 01°16' E 103°50'0 0.0
2017-Aug-11 21:57N 01°16' E 103°50'0 0.0
2017-Aug-11 21:30N 01°16' E 103°50'0 0.0
2017-Aug-11 21:00N 01°16' E 103°50'0 0.0
2017-Aug-11 20:30N 01°16' E 103°50'0 0.0
2017-Aug-11 19:57N 01°16' E 103°50'0 0.0
2017-Aug-11 19:30N 01°16' E 103°50'0 0.0
2017-Aug-11 19:00N 01°16' E 103°50'0 0.0
2017-Aug-11 18:30N 01°16' E 103°50'0 0.0
2017-Aug-11 17:57N 01°16' E 103°50'0 0.6
2017-Aug-11 17:30N 01°16' E 103°50'1 2.4
2017-Aug-11 17:00N 01°15' E 103°51'0 0.5
2017-Aug-11 16:30N 01°15' E 103°51'1 3.0
2017-Aug-11 16:00N 01°14' E 103°52'3 6.5
2017-Aug-11 15:30N 01°12' E 103°50'4 8.3
2017-Aug-11 15:01N 01°15' E 103°46'1 0.9
2017-Aug-11 13:58N 01°16' E 103°47'0 0.0
2017-Aug-11 13:25N 01°16' E 103°47'0 0.0
2017-Aug-11 12:58N 01°16' E 103°47'0 0.0
2017-Aug-11 12:28N 01°16' E 103°47'0 0.0
2017-Aug-11 11:58N 01°16' E 103°47'0 0.0
2017-Aug-11 11:28N 01°16' E 103°47'0 0.0
2017-Aug-11 10:58N 01°16' E 103°47'0 0.0
2017-Aug-11 10:28N 01°16' E 103°47'0 0.0
2017-Aug-11 09:58N 01°16' E 103°47'0 0.0
2017-Aug-11 09:28N 01°16' E 103°47'0 0.0
2017-Aug-11 08:58N 01°16' E 103°47'0 0.0
2017-Aug-11 08:28N 01°16' E 103°47'0 0.0
2017-Aug-11 07:58N 01°16' E 103°47'0 0.0
2017-Aug-11 07:28N 01°16' E 103°47'0 0.0
2017-Aug-11 06:58N 01°16' E 103°47'0 0.0
2017-Aug-11 06:28N 01°16' E 103°47'0 0.0
2017-Aug-11 05:58N 01°16' E 103°47'0 0.0
2017-Aug-11 05:25N 01°16' E 103°47'0 0.0
2017-Aug-11 04:58N 01°16' E 103°47'0 0.0
2017-Aug-11 04:28N 01°16' E 103°47'0 0.0
2017-Aug-11 03:58N 01°16' E 103°47'0 0.0
2017-Aug-11 03:28N 01°16' E 103°47'0 0.0
2017-Aug-11 02:55N 01°16' E 103°47'0 0.0
2017-Aug-11 02:28N 01°16' E 103°47'0 0.0
2017-Aug-11 01:58N 01°16' E 103°47'0 0.0
2017-Aug-11 01:25N 01°16' E 103°47'0 0.0
2017-Aug-11 00:58N 01°16' E 103°47'0 0.0
2017-Aug-11 00:28N 01°16' E 103°47'0 0.0
2017-Aug-10 23:58N 01°16' E 103°47'0 0.0
2017-Aug-10 23:25N 01°16' E 103°47'0 0.0
2017-Aug-10 22:55N 01°16' E 103°47'0 0.0
2017-Aug-10 22:28N 01°16' E 103°47'0 0.0
2017-Aug-10 21:58N 01°16' E 103°47'0 0.0
2017-Aug-10 21:28N 01°16' E 103°47'0 0.0
2017-Aug-10 20:55N 01°16' E 103°47'0 0.0
2017-Aug-10 20:28N 01°16' E 103°47'0 0.0
2017-Aug-10 19:58N 01°16' E 103°47'0 0.0
2017-Aug-10 19:28N 01°16' E 103°47'0 0.0
2017-Aug-10 18:56N 01°16' E 103°47'0 0.4
2017-Aug-10 18:30N 01°16' E 103°47'2 4.9
2017-Aug-10 18:01N 01°14' E 103°48'4 8.8
2017-Aug-10 17:30N 01°13' E 103°52'3 6.1
2017-Aug-10 17:00N 01°14' E 103°55'2 4.7
2017-Aug-10 16:30N 01°15' E 103°57'510.0
2017-Aug-10 16:00N 01°16' E 104°02'  
Track history (hours):
 
Tides and Currents Weather Stations Pressure Air Temp Water Temp Dewpoint Dewpoint Depression Visibility Wind Speed Wind Dir Waves Ship Positions

OOCL Kaohsiung

Last reported at 2017-Aug-13 22:35 UTC. Time now 2017-Aug-22 12:53 UTC.
Position N 01°23' E 104°27'.
Warning: this ship's position is 8 days out of date.

Length 280 m; draft 13.7 m.

Type: Ship. MMSI: 566389000.

Date/timePositionNaut miles runAvg speedWind from/ knotsBaromVisibWave heightAir tempDewpointWater temp
2017-Aug-13 22:35N 01°23' E 104°27'3018.4
2017-Aug-13 20:56N 01°13' E 103°58'818.0
2017-Aug-13 20:30N 01°11' E 103°50'917.6
2017-Aug-13 20:00N 01°05' E 103°44'815.5
2017-Aug-13 19:30N 01°04' E 103°36'918.9
2017-Aug-13 19:01N 01°08' E 103°28'1020.1
2017-Aug-13 18:30N 01°14' E 103°20'5 0.1
2017-Aug-12 07:21N 01°14' E 103°25'716.1
2017-Aug-12 06:57N 01°12' E 103°31'715.8
2017-Aug-12 06:30N 01°11' E 103°38'815.3
2017-Aug-12 06:00N 01°09' E 103°45'815.6
2017-Aug-12 05:31N 01°12' E 103°52'3 6.7
2017-Aug-12 05:01N 01°15' E 103°51'1 1.7
2017-Aug-12 04:27N 01°16' E 103°50'0 0.1
2017-Aug-12 03:54N 01°16' E 103°50'0 0.0
2017-Aug-12 03:30N 01°16' E 103°50'0 0.0
2017-Aug-12 03:00N 01°16' E 103°50'0 0.0
2017-Aug-12 02:30N 01°16' E 103°50'0 0.0
2017-Aug-12 01:57N 01°16' E 103°50'0 0.0
2017-Aug-12 01:30N 01°16' E 103°50'0 0.0
2017-Aug-12 00:57N 01°16' E 103°50'0 0.0
2017-Aug-12 00:30N 01°16' E 103°50'0 0.0
2017-Aug-11 23:57N 01°16' E 103°50'0 0.0
2017-Aug-11 23:27N 01°16' E 103°50'0 0.0
2017-Aug-11 22:57N 01°16' E 103°50'0 0.0
2017-Aug-11 22:27N 01°16' E 103°50'0 0.0
2017-Aug-11 21:57N 01°16' E 103°50'0 0.0
2017-Aug-11 21:30N 01°16' E 103°50'0 0.0
2017-Aug-11 21:00N 01°16' E 103°50'0 0.0
2017-Aug-11 20:30N 01°16' E 103°50'0 0.0
2017-Aug-11 19:57N 01°16' E 103°50'0 0.0
2017-Aug-11 19:30N 01°16' E 103°50'0 0.0
2017-Aug-11 19:00N 01°16' E 103°50'0 0.0
2017-Aug-11 18:30N 01°16' E 103°50'0 0.0
2017-Aug-11 17:57N 01°16' E 103°50'0 0.6
2017-Aug-11 17:30N 01°16' E 103°50'1 2.4
2017-Aug-11 17:00N 01°15' E 103°51'0 0.5
2017-Aug-11 16:30N 01°15' E 103°51'1 3.0
2017-Aug-11 16:00N 01°14' E 103°52'3 6.5
2017-Aug-11 15:30N 01°12' E 103°50'4 8.3
2017-Aug-11 15:01N 01°15' E 103°46'1 0.9
2017-Aug-11 13:58N 01°16' E 103°47'0 0.0
2017-Aug-11 13:25N 01°16' E 103°47'0 0.0
2017-Aug-11 12:58N 01°16' E 103°47'0 0.0
2017-Aug-11 12:28N 01°16' E 103°47'0 0.0
2017-Aug-11 11:58N 01°16' E 103°47'0 0.0
2017-Aug-11 11:28N 01°16' E 103°47'0 0.0
2017-Aug-11 10:58N 01°16' E 103°47'0 0.0
2017-Aug-11 10:28N 01°16' E 103°47'0 0.0
2017-Aug-11 09:58N 01°16' E 103°47'0 0.0
2017-Aug-11 09:28N 01°16' E 103°47'0 0.0
2017-Aug-11 08:58N 01°16' E 103°47'0 0.0
2017-Aug-11 08:28N 01°16' E 103°47'0 0.0
2017-Aug-11 07:58N 01°16' E 103°47'0 0.0
2017-Aug-11 07:28N 01°16' E 103°47'0 0.0
2017-Aug-11 06:58N 01°16' E 103°47'0 0.0
2017-Aug-11 06:28N 01°16' E 103°47'0 0.0
2017-Aug-11 05:58N 01°16' E 103°47'0 0.0
2017-Aug-11 05:25N 01°16' E 103°47'0 0.0
2017-Aug-11 04:58N 01°16' E 103°47'0 0.0
2017-Aug-11 04:28N 01°16' E 103°47'0 0.0
2017-Aug-11 03:58N 01°16' E 103°47'0 0.0
2017-Aug-11 03:28N 01°16' E 103°47'0 0.0
2017-Aug-11 02:55N 01°16' E 103°47'0 0.0
2017-Aug-11 02:28N 01°16' E 103°47'0 0.0
2017-Aug-11 01:58N 01°16' E 103°47'0 0.0
2017-Aug-11 01:25N 01°16' E 103°47'0 0.0
2017-Aug-11 00:58N 01°16' E 103°47'0 0.0
2017-Aug-11 00:28N 01°16' E 103°47'0 0.0
2017-Aug-10 23:58N 01°16' E 103°47'0 0.0
2017-Aug-10 23:25N 01°16' E 103°47'0 0.0
2017-Aug-10 22:55N 01°16' E 103°47'0 0.0
2017-Aug-10 22:28N 01°16' E 103°47'0 0.0
2017-Aug-10 21:58N 01°16' E 103°47'0 0.0
2017-Aug-10 21:28N 01°16' E 103°47'0 0.0
2017-Aug-10 20:55N 01°16' E 103°47'0 0.0
2017-Aug-10 20:28N 01°16' E 103°47'0 0.0
2017-Aug-10 19:58N 01°16' E 103°47'0 0.0
2017-Aug-10 19:28N 01°16' E 103°47'0 0.0
2017-Aug-10 18:56N 01°16' E 103°47'0 0.4
2017-Aug-10 18:30N 01°16' E 103°47'2 4.9
2017-Aug-10 18:01N 01°14' E 103°48'4 8.8
2017-Aug-10 17:30N 01°13' E 103°52'3 6.1
2017-Aug-10 17:00N 01°14' E 103°55'2 4.7
2017-Aug-10 16:30N 01°15' E 103°57'510.0
2017-Aug-10 16:00N 01°16' E 104°02'  

Dump ship's entire track history